createdAt,value
2022-10-13T00:01:18.463Z,15.52
2022-10-13T00:03:49.402Z,15.53
2022-10-13T00:06:25.389Z,15.53
2022-10-13T00:08:52.373Z,15.54
2022-10-13T00:11:25.172Z,15.54
2022-10-13T00:13:59.988Z,15.54
2022-10-13T00:16:29.793Z,15.56
2022-10-13T00:18:56.601Z,15.57
2022-10-13T00:21:26.227Z,15.58
2022-10-13T00:23:57.369Z,15.59
2022-10-13T00:26:25.939Z,15.61
2022-10-13T00:28:53.821Z,15.61
2022-10-13T00:31:29.108Z,15.63
2022-10-13T00:34:01.335Z,15.65
2022-10-13T00:36:29.396Z,15.66
2022-10-13T00:38:57.046Z,15.69
2022-10-13T00:41:23.603Z,15.68
2022-10-13T00:44:00.305Z,15.69
2022-10-13T00:46:32.286Z,15.69
2022-10-13T00:49:04.330Z,15.69
2022-10-13T00:51:34.928Z,15.68
2022-10-13T00:54:07.294Z,15.66
2022-10-13T00:56:37.738Z,15.67
2022-10-13T00:59:11.974Z,15.66
2022-10-13T01:01:40.998Z,15.67
2022-10-13T01:04:11.897Z,15.67
2022-10-13T01:06:38.451Z,15.68
2022-10-13T01:09:07.811Z,15.66
2022-10-13T01:11:52.587Z,15.65
2022-10-13T01:14:41.591Z,15.64
2022-10-13T01:17:25.980Z,15.66
2022-10-13T01:20:14.204Z,15.66
2022-10-13T01:23:00.412Z,15.66
2022-10-13T01:25:31.450Z,15.65
2022-10-13T01:28:03.795Z,15.66
2022-10-13T01:30:37.667Z,15.68
2022-10-13T01:33:19.886Z,15.69
2022-10-13T01:36:11.754Z,15.69
2022-10-13T01:39:11.642Z,15.71
2022-10-13T01:41:46.457Z,15.74
2022-10-13T01:44:45.362Z,15.76
2022-10-13T01:47:15.653Z,15.77
2022-10-13T01:49:45.136Z,15.75
2022-10-13T01:52:17.960Z,15.76
2022-10-13T01:54:53.998Z,15.78
2022-10-13T01:57:33.121Z,15.81
2022-10-13T02:00:16.603Z,15.84
2022-10-13T02:02:51.703Z,15.86
2022-10-13T02:05:27.105Z,15.87
2022-10-13T02:08:01.397Z,15.89
2022-10-13T02:10:48.118Z,15.94
2022-10-13T02:13:17.671Z,15.96
2022-10-13T02:15:53.258Z,15.96
2022-10-13T02:18:23.758Z,15.97
2022-10-13T02:20:51.049Z,15.97
2022-10-13T02:23:18.779Z,15.98
2022-10-13T02:25:50.971Z,15.98
2022-10-13T02:28:18.779Z,16.01
2022-10-13T02:30:46.698Z,16.02
2022-10-13T02:33:14.418Z,16.03
2022-10-13T02:35:41.982Z,16.06
2022-10-13T02:38:08.967Z,16.09
2022-10-13T02:40:35.483Z,16.12
2022-10-13T02:43:02.365Z,16.15
2022-10-13T02:45:28.878Z,16.15
2022-10-13T02:47:55.573Z,16.16
2022-10-13T02:50:22.082Z,16.17
2022-10-13T02:52:50.383Z,16.18
2022-10-13T02:55:17.785Z,16.20
2022-10-13T02:57:45.574Z,16.20
2022-10-13T03:00:12.704Z,16.23
2022-10-13T03:02:39.310Z,16.24
2022-10-13T03:05:10.605Z,16.23
2022-10-13T03:07:37.330Z,16.25
2022-10-13T03:10:05.157Z,16.25
2022-10-13T03:12:31.726Z,16.27
2022-10-13T03:15:22.858Z,16.24
2022-10-13T03:17:49.460Z,16.25
2022-10-13T03:20:16.227Z,16.26
2022-10-13T03:22:46.081Z,16.26
2022-10-13T03:25:16.059Z,16.25
2022-10-13T03:27:43.306Z,16.21
2022-10-13T03:30:10.576Z,16.22
2022-10-13T03:32:38.955Z,16.21
2022-10-13T03:35:09.617Z,16.20
2022-10-13T03:37:36.273Z,16.21
2022-10-13T03:40:02.999Z,16.22
2022-10-13T03:42:29.498Z,16.19
2022-10-13T03:45:00.039Z,16.19
2022-10-13T03:47:26.594Z,16.20
2022-10-13T03:49:55.131Z,16.18
2022-10-13T03:52:22.887Z,16.17
2022-10-13T03:54:51.442Z,16.17
2022-10-13T03:57:17.934Z,16.17
2022-10-13T03:59:44.410Z,16.18
2022-10-13T04:02:10.999Z,16.20
2022-10-13T04:04:40.340Z,16.20
2022-10-13T04:07:07.946Z,16.19
2022-10-13T04:09:34.714Z,16.18
2022-10-13T04:12:01.179Z,16.18
2022-10-13T04:14:28.983Z,16.17
2022-10-13T04:17:01.866Z,16.18
2022-10-13T04:19:28.426Z,16.17
2022-10-13T04:21:54.901Z,16.16
2022-10-13T04:24:22.345Z,16.14
2022-10-13T04:26:48.790Z,16.13
2022-10-13T04:29:15.311Z,16.12
2022-10-13T04:31:43.858Z,16.11
2022-10-13T04:34:12.625Z,16.10
2022-10-13T04:36:39.148Z,16.10
2022-10-13T04:39:05.645Z,16.11
2022-10-13T04:41:33.001Z,16.12
2022-10-13T04:44:03.317Z,16.12
2022-10-13T04:46:29.875Z,16.14
2022-10-13T04:48:57.070Z,16.15
2022-10-13T04:51:28.795Z,16.18
2022-10-13T04:54:01.443Z,16.18
2022-10-13T04:56:28.198Z,16.19
2022-10-13T04:58:59.870Z,16.18
2022-10-13T05:01:26.704Z,16.18
2022-10-13T05:04:01.138Z,16.16
2022-10-13T05:06:30.559Z,16.17
2022-10-13T05:08:57.501Z,16.17
2022-10-13T05:11:26.504Z,16.20
2022-10-13T05:13:57.722Z,16.21
2022-10-13T05:16:25.066Z,16.23
2022-10-13T05:18:53.983Z,16.25
2022-10-13T05:21:26.229Z,16.25
2022-10-13T05:23:56.253Z,16.26
2022-10-13T05:26:28.688Z,16.26
2022-10-13T05:28:57.195Z,16.26
2022-10-13T05:31:27.066Z,16.26
2022-10-13T05:33:56.179Z,16.25
2022-10-13T05:36:26.509Z,16.26
2022-10-13T05:38:54.831Z,16.25
2022-10-13T05:41:23.177Z,16.26
2022-10-13T05:43:58.925Z,16.27
2022-10-13T05:46:25.602Z,16.25
2022-10-13T05:48:52.208Z,16.22
2022-10-13T05:51:28.165Z,16.20
2022-10-13T05:54:20.184Z,16.18
2022-10-13T05:56:55.795Z,16.17
2022-10-13T05:59:27.070Z,16.15
2022-10-13T06:01:54.590Z,16.14
2022-10-13T06:04:41.653Z,16.13
2022-10-13T06:07:09.781Z,16.15
2022-10-13T06:09:39.740Z,16.13
2022-10-13T06:12:07.691Z,16.13
2022-10-13T06:14:35.450Z,16.13
2022-10-13T06:17:05.769Z,16.12
2022-10-13T06:19:32.360Z,16.14
2022-10-13T06:22:07.046Z,16.15
2022-10-13T06:24:35.287Z,16.16
2022-10-13T06:27:03.664Z,16.17
2022-10-13T06:29:30.193Z,16.19
2022-10-13T06:31:56.677Z,16.23
2022-10-13T06:34:23.150Z,16.26
2022-10-13T06:36:49.622Z,16.29
2022-10-13T06:39:16.088Z,16.30
2022-10-13T06:41:42.559Z,16.33
2022-10-13T06:44:12.917Z,16.36
2022-10-13T06:46:39.383Z,16.39
2022-10-13T06:49:05.897Z,16.43
2022-10-13T06:51:32.421Z,16.46
2022-10-13T06:54:03.606Z,16.49
2022-10-13T06:56:30.773Z,16.53
2022-10-13T06:58:58.633Z,16.53
2022-10-13T07:01:25.173Z,16.57
2022-10-13T07:03:54.814Z,16.62
2022-10-13T07:06:21.493Z,16.66
2022-10-13T07:08:50.409Z,16.68
2022-10-13T07:11:18.562Z,16.69
2022-10-13T07:13:54.288Z,16.71
2022-10-13T07:16:20.772Z,16.73
2022-10-13T07:18:48.209Z,16.71
2022-10-13T07:21:14.926Z,16.74
2022-10-13T07:23:41.387Z,16.75
2022-10-13T07:26:09.970Z,16.77
2022-10-13T07:28:37.365Z,16.78
2022-10-13T07:31:30.050Z,16.82
2022-10-13T07:34:01.712Z,16.86
2022-10-13T07:36:28.205Z,16.88
2022-10-13T07:38:54.662Z,16.88
2022-10-13T07:41:21.125Z,16.91
2022-10-13T07:43:49.687Z,16.92
2022-10-13T07:46:16.222Z,16.93
2022-10-13T07:48:42.740Z,16.95
2022-10-13T07:51:12.707Z,16.94
2022-10-13T07:53:40.570Z,16.97
2022-10-13T07:56:09.252Z,17.02
2022-10-13T07:58:40.216Z,17.09
2022-10-13T08:01:07.732Z,17.15
2022-10-13T08:03:38.398Z,17.22
2022-10-13T08:06:05.899Z,17.28
2022-10-13T08:08:33.693Z,17.36
2022-10-13T08:11:05.427Z,17.41
2022-10-13T08:13:34.353Z,17.43
2022-10-13T08:16:12.604Z,17.45
2022-10-13T08:18:39.208Z,17.48
2022-10-13T08:21:39.220Z,17.50
2022-10-13T08:24:02.222Z,17.55
2022-10-13T08:26:29.121Z,17.57
2022-10-13T08:29:16.829Z,17.61
2022-10-13T08:31:42.947Z,17.66
2022-10-13T08:34:11.279Z,17.70
2022-10-13T08:36:38.768Z,17.73
2022-10-13T08:39:05.538Z,17.78
2022-10-13T08:41:37.919Z,17.85
2022-10-13T08:47:22.963Z,18.02
2022-10-13T08:49:49.766Z,18.08
2022-10-13T08:52:22.902Z,18.15
2022-10-13T08:54:53.293Z,18.20
2022-10-13T08:57:21.200Z,18.22
2022-10-13T08:59:48.601Z,18.30
2022-10-13T09:02:29.848Z,18.38
2022-10-13T09:05:00.858Z,18.50
2022-10-13T09:07:32.331Z,18.63
2022-10-13T09:09:58.794Z,18.79
2022-10-13T09:12:27.595Z,18.92
2022-10-13T09:15:01.428Z,19.01
2022-10-13T09:17:29.480Z,19.07
2022-10-13T09:20:16.186Z,19.13
2022-10-13T09:22:43.586Z,19.19
2022-10-13T09:25:21.277Z,19.22
2022-10-13T09:27:59.583Z,19.29
2022-10-13T09:30:41.511Z,19.32
2022-10-13T09:33:08.648Z,19.34
2022-10-13T09:35:41.575Z,19.36
2022-10-13T09:38:13.241Z,19.35
2022-10-13T09:40:40.903Z,19.36
2022-10-13T09:43:27.517Z,19.36
2022-10-13T09:45:54.959Z,19.39
2022-10-13T09:48:26.915Z,19.40
2022-10-13T09:50:56.098Z,19.40
2022-10-13T09:53:37.983Z,19.39
2022-10-13T09:56:26.169Z,19.36
2022-10-13T09:59:07.737Z,19.35
2022-10-13T10:01:39.596Z,19.34
2022-10-13T10:04:17.996Z,19.33
2022-10-13T10:06:46.138Z,19.34
2022-10-13T10:09:15.570Z,19.32
2022-10-13T10:11:45.265Z,19.31
2022-10-13T10:14:29.637Z,19.26
2022-10-13T10:17:06.102Z,19.25
2022-10-13T10:19:43.297Z,19.22
2022-10-13T10:22:09.767Z,19.21
2022-10-13T10:24:49.349Z,19.21
2022-10-13T10:27:30.457Z,19.22
2022-10-13T10:30:06.556Z,19.21
2022-10-13T10:32:51.196Z,19.21
2022-10-13T10:35:40.495Z,19.20
2022-10-13T10:38:15.906Z,19.21
2022-10-13T10:41:00.960Z,19.20
2022-10-13T10:44:01.696Z,19.15
2022-10-13T10:46:32.517Z,19.13
2022-10-13T10:49:02.766Z,19.11
2022-10-13T10:51:36.654Z,19.10
2022-10-13T10:54:46.609Z,19.08
2022-10-13T10:57:33.388Z,19.07
2022-10-13T11:00:14.175Z,19.05
2022-10-13T11:02:45.153Z,19.03
2022-10-13T11:05:12.485Z,19.03
2022-10-13T11:07:38.948Z,19.04
2022-10-13T11:10:16.302Z,19.03
2022-10-13T11:12:53.063Z,19.03
2022-10-13T11:15:23.782Z,18.99
2022-10-13T11:17:50.836Z,18.97
2022-10-13T11:20:18.006Z,18.97
2022-10-13T11:22:59.703Z,18.97
2022-10-13T11:25:43.745Z,19.00
2022-10-13T11:28:22.760Z,19.00
2022-10-13T11:30:50.564Z,19.02
2022-10-13T11:33:39.198Z,19.00
2022-10-13T11:36:43.347Z,19.00
2022-10-13T11:39:28.595Z,18.99
2022-10-13T11:42:06.719Z,19.01
2022-10-13T11:45:14.656Z,19.02
2022-10-13T11:47:54.018Z,19.04
2022-10-13T11:50:49.470Z,19.06
2022-10-13T11:53:21.654Z,19.10
2022-10-13T11:55:58.480Z,19.12
2022-10-13T11:58:30.379Z,19.13
2022-10-13T12:01:03.094Z,19.13
2022-10-13T12:04:12.780Z,19.12
2022-10-13T12:06:40.394Z,19.13
2022-10-13T12:09:21.109Z,19.12
2022-10-13T12:11:57.052Z,19.12
2022-10-13T12:14:32.494Z,19.10
2022-10-13T12:17:00.550Z,19.09
2022-10-13T12:19:29.411Z,19.07
2022-10-13T12:22:01.635Z,19.05
2022-10-13T12:24:30.715Z,19.07
2022-10-13T12:26:58.617Z,19.08
2022-10-13T12:29:27.830Z,19.06
2022-10-13T12:31:58.081Z,19.05
2022-10-13T12:34:32.153Z,19.05
2022-10-13T12:37:05.531Z,19.04
2022-10-13T12:39:34.955Z,19.03
2022-10-13T12:42:03.430Z,19.00
2022-10-13T12:44:34.477Z,19.00
2022-10-13T12:47:03.713Z,18.97
2022-10-13T12:49:32.865Z,18.93
2022-10-13T12:52:19.244Z,18.90
2022-10-13T12:54:54.340Z,18.88
2022-10-13T12:57:22.930Z,18.86
2022-10-13T12:59:49.498Z,18.81
2022-10-13T13:02:19.117Z,18.80
2022-10-13T13:04:50.700Z,18.80
2022-10-13T13:07:37.068Z,18.78
2022-10-13T13:10:15.800Z,18.79
2022-10-13T13:12:43.071Z,18.80
2022-10-13T13:15:24.517Z,18.81
2022-10-13T13:17:58.455Z,18.83
2022-10-13T13:20:34.687Z,18.83
2022-10-13T13:23:01.266Z,18.85
2022-10-13T13:25:27.889Z,18.87
2022-10-13T13:27:54.754Z,18.89
2022-10-13T13:30:23.599Z,18.91
2022-10-13T13:32:51.001Z,18.90
2022-10-13T13:35:17.695Z,18.90
2022-10-13T13:37:49.533Z,18.87
2022-10-13T13:40:21.659Z,18.87
2022-10-13T13:42:48.158Z,18.88
2022-10-13T13:45:16.362Z,18.87
2022-10-13T13:47:43.211Z,18.88
2022-10-13T13:50:20.655Z,18.86
2022-10-13T13:52:55.879Z,18.83
2022-10-13T13:55:27.954Z,18.79
2022-10-13T13:57:54.432Z,18.79
2022-10-13T14:00:22.198Z,18.80
2022-10-13T14:02:54.973Z,18.82
2022-10-13T14:05:23.564Z,18.85
2022-10-13T14:07:53.156Z,18.86
2022-10-13T14:10:19.618Z,18.88
2022-10-13T14:12:46.355Z,18.88
2022-10-13T14:15:12.902Z,18.88
2022-10-13T14:17:39.358Z,18.86
2022-10-13T14:20:06.410Z,18.83
2022-10-13T14:22:38.728Z,18.82
2022-10-13T14:25:06.784Z,18.82
2022-10-13T14:27:34.911Z,18.85
2022-10-13T14:30:01.955Z,18.85
2022-10-13T14:32:28.529Z,18.86
2022-10-13T14:34:56.875Z,18.86
2022-10-13T14:37:26.701Z,18.89
2022-10-13T14:39:55.602Z,18.90
2022-10-13T14:42:22.130Z,18.90
2022-10-13T14:44:53.004Z,18.89
2022-10-13T14:47:19.885Z,18.90
2022-10-13T14:49:46.580Z,18.91
2022-10-13T14:52:13.070Z,18.90
2022-10-13T14:54:44.552Z,18.90
2022-10-13T14:57:16.257Z,18.89
2022-10-13T14:59:43.846Z,18.89
2022-10-13T15:02:11.488Z,18.87
2022-10-13T15:04:40.566Z,18.87
2022-10-13T15:07:07.015Z,18.89
2022-10-13T15:09:52.151Z,18.91
2022-10-13T15:12:22.755Z,18.92
2022-10-13T15:14:49.502Z,18.87
2022-10-13T15:17:15.996Z,18.88
2022-10-13T15:19:42.445Z,18.89
2022-10-13T15:22:09.577Z,18.89
2022-10-13T15:24:36.910Z,18.90
2022-10-13T15:27:03.459Z,18.90
2022-10-13T15:29:31.786Z,18.90
2022-10-13T15:32:11.818Z,18.88
2022-10-13T15:34:42.877Z,18.90
2022-10-13T15:37:09.357Z,18.91
2022-10-13T15:39:35.898Z,18.87
2022-10-13T15:42:02.898Z,18.86
2022-10-13T15:44:57.307Z,18.86
2022-10-13T15:47:20.302Z,18.85
2022-10-13T15:49:46.775Z,18.85
2022-10-13T15:52:13.392Z,18.81
2022-10-13T15:54:40.892Z,18.80
2022-10-13T15:57:08.061Z,18.81
2022-10-13T15:59:34.566Z,18.79
2022-10-13T16:02:01.027Z,18.78
2022-10-13T16:04:33.495Z,18.78
2022-10-13T16:07:02.973Z,18.78
2022-10-13T16:09:29.588Z,18.75
2022-10-13T16:11:56.078Z,18.72
2022-10-13T16:14:25.677Z,18.69
2022-10-13T16:16:52.454Z,18.67
2022-10-13T16:19:19.027Z,18.69
2022-10-13T16:21:46.803Z,18.72
2022-10-13T16:24:18.017Z,18.74
2022-10-13T16:26:44.529Z,18.78
2022-10-13T16:29:11.018Z,18.80
2022-10-13T16:31:37.532Z,18.78
2022-10-13T16:34:04.870Z,18.78
2022-10-13T16:36:31.442Z,18.78
2022-10-13T16:38:57.977Z,18.79
2022-10-13T16:41:24.428Z,18.79
2022-10-13T16:43:54.253Z,18.79
2022-10-13T16:46:21.150Z,18.79
2022-10-13T16:48:47.946Z,18.76
2022-10-13T16:51:17.219Z,18.73
2022-10-13T16:53:50.016Z,18.71
2022-10-13T16:56:21.826Z,18.70
2022-10-13T16:58:54.461Z,18.67
2022-10-13T17:01:21.685Z,18.65
2022-10-13T17:04:08.260Z,18.59
2022-10-13T17:06:38.525Z,18.58
2022-10-13T17:09:05.345Z,18.55
2022-10-13T17:11:34.143Z,18.51
2022-10-13T17:14:05.606Z,18.51
2022-10-13T17:16:33.063Z,18.51
2022-10-13T17:18:59.778Z,18.52
2022-10-13T17:21:38.612Z,18.53
2022-10-13T17:24:11.594Z,18.50
2022-10-13T17:26:38.639Z,18.48
2022-10-13T17:29:05.114Z,18.45
2022-10-13T17:31:31.614Z,18.43
2022-10-13T17:34:02.392Z,18.40
2022-10-13T17:36:31.831Z,18.41
2022-10-13T17:39:06.207Z,18.40
2022-10-13T17:41:39.377Z,18.40
2022-10-13T17:44:06.731Z,18.39
2022-10-13T17:46:38.303Z,18.37
2022-10-13T17:49:07.128Z,18.38
2022-10-13T17:51:33.992Z,18.37
2022-10-13T17:54:01.271Z,18.36
2022-10-13T17:56:28.993Z,18.35
2022-10-13T17:58:56.638Z,18.32
2022-10-13T18:01:26.497Z,18.29
2022-10-13T18:03:59.706Z,18.28
2022-10-13T18:06:37.853Z,18.26
2022-10-13T18:09:06.221Z,18.27
2022-10-13T18:11:33.896Z,18.26
2022-10-13T18:14:04.463Z,18.23
2022-10-13T18:16:31.017Z,18.22
2022-10-13T18:18:57.485Z,18.17
2022-10-13T18:21:27.514Z,18.14
2022-10-13T18:24:01.646Z,18.10
2022-10-13T18:26:36.717Z,18.10
2022-10-13T18:29:05.130Z,18.08
2022-10-13T18:31:33.861Z,18.09
2022-10-13T18:34:06.384Z,18.08
2022-10-13T18:36:38.841Z,18.08
2022-10-13T18:39:11.097Z,18.08
2022-10-13T18:41:39.589Z,18.10
2022-10-13T18:44:10.449Z,18.07
2022-10-13T18:46:38.286Z,18.04
2022-10-13T18:49:06.870Z,18.04
2022-10-13T18:51:36.214Z,18.04
2022-10-13T18:54:05.612Z,18.03
2022-10-13T18:56:33.522Z,18.04
2022-10-13T18:59:01.663Z,18.04
2022-10-13T19:01:31.465Z,18.05
2022-10-13T19:04:00.402Z,18.05
2022-10-13T19:06:30.355Z,18.03
2022-10-13T19:09:01.916Z,18.03
2022-10-13T19:11:29.513Z,18.04
2022-10-13T19:13:59.371Z,18.04
2022-10-13T19:16:28.138Z,18.05
2022-10-13T19:18:54.998Z,18.09
2022-10-13T19:21:22.808Z,18.12
2022-10-13T19:23:54.133Z,18.15
2022-10-13T19:26:23.736Z,18.20
2022-10-13T19:28:58.417Z,18.22
2022-10-13T19:31:26.497Z,18.23
2022-10-13T19:34:01.931Z,18.24
2022-10-13T19:36:32.429Z,18.25
2022-10-13T19:39:01.902Z,18.24
2022-10-13T19:41:31.192Z,18.24
2022-10-13T19:44:02.409Z,18.25
2022-10-13T19:46:39.213Z,18.25
2022-10-13T19:49:05.961Z,18.24
2022-10-13T19:51:33.851Z,18.24
2022-10-13T19:54:02.077Z,18.24
2022-10-13T19:56:31.568Z,18.24
2022-10-13T19:58:58.895Z,18.21
2022-10-13T20:01:25.435Z,18.20
2022-10-13T20:03:55.180Z,18.18
2022-10-13T20:06:22.298Z,18.16
2022-10-13T20:08:49.336Z,18.14
2022-10-13T20:11:23.813Z,18.12
2022-10-13T20:13:59.817Z,18.11
2022-10-13T20:16:26.412Z,18.10
2022-10-13T20:18:56.645Z,18.10
2022-10-13T20:21:24.411Z,18.09
2022-10-13T20:23:54.576Z,18.08
2022-10-13T20:26:22.131Z,18.11
2022-10-13T20:28:50.443Z,18.10
2022-10-13T20:31:19.564Z,18.10
2022-10-13T20:33:47.078Z,18.11
2022-10-13T20:36:38.283Z,18.13
2022-10-13T20:39:05.662Z,18.15
2022-10-13T20:41:33.193Z,18.16
2022-10-13T20:44:02.460Z,18.15
2022-10-13T20:46:30.890Z,18.15
2022-10-13T20:49:10.409Z,18.14
2022-10-13T20:51:38.069Z,18.13
2022-10-13T20:54:10.104Z,18.10
2022-10-13T20:56:36.720Z,18.09
2022-10-13T20:59:05.470Z,18.06
2022-10-13T21:01:32.575Z,18.05
2022-10-13T21:04:24.335Z,18.02
2022-10-13T21:06:51.944Z,18.03
2022-10-13T21:09:18.542Z,18.02
2022-10-13T21:11:45.020Z,18.02
2022-10-13T21:14:14.492Z,18.01
2022-10-13T21:16:41.009Z,18.01
2022-10-13T21:19:10.947Z,18.01
2022-10-13T21:21:37.866Z,18.01
2022-10-13T21:24:08.141Z,17.99
2022-10-13T21:26:35.340Z,17.99
2022-10-13T21:29:02.231Z,17.99
2022-10-13T21:31:30.313Z,17.98
2022-10-13T21:33:58.905Z,17.96
2022-10-13T21:36:30.656Z,17.94
2022-10-13T21:39:02.691Z,17.94
2022-10-13T21:41:29.180Z,17.96
2022-10-13T21:43:58.897Z,17.97
2022-10-13T21:46:32.084Z,17.97
2022-10-13T21:49:00.798Z,17.95
2022-10-13T21:51:30.166Z,17.95
2022-10-13T21:54:01.391Z,17.95
2022-10-13T21:56:30.480Z,17.95
2022-10-13T21:58:59.005Z,17.94
2022-10-13T22:01:25.825Z,17.94
2022-10-13T22:03:58.376Z,17.96
2022-10-13T22:06:28.588Z,17.96
2022-10-13T22:08:57.145Z,17.99
2022-10-13T22:11:26.945Z,17.98
2022-10-13T22:13:57.771Z,17.95
2022-10-13T22:16:30.804Z,17.92
2022-10-13T22:18:58.246Z,17.89
2022-10-13T22:21:27.930Z,17.87
2022-10-13T22:24:01.434Z,17.89
2022-10-13T22:26:30.458Z,17.89
2022-10-13T22:28:58.052Z,17.89
2022-10-13T22:31:25.100Z,17.86
2022-10-13T22:34:01.431Z,17.82
2022-10-13T22:36:28.050Z,17.83
2022-10-13T22:39:02.735Z,17.83
2022-10-13T22:41:31.512Z,17.84
2022-10-13T22:44:01.538Z,17.85
2022-10-13T22:46:32.111Z,17.84
2022-10-13T22:48:59.000Z,17.85
2022-10-13T22:51:27.326Z,17.84
2022-10-13T22:53:57.406Z,17.85
2022-10-13T22:56:29.442Z,17.86
2022-10-13T22:59:15.022Z,17.85
2022-10-13T23:01:43.647Z,17.86
2022-10-13T23:04:14.741Z,17.86
2022-10-13T23:06:41.183Z,17.86
2022-10-13T23:09:11.921Z,17.87
2022-10-13T23:11:38.867Z,17.87
2022-10-13T23:14:08.747Z,17.88
2022-10-13T23:16:35.603Z,17.89
2022-10-13T23:19:02.158Z,17.86
2022-10-13T23:21:29.782Z,17.84
2022-10-13T23:24:02.726Z,17.83
2022-10-13T23:26:31.408Z,17.82
2022-10-13T23:28:58.631Z,17.82
2022-10-13T23:31:26.483Z,17.81
2022-10-13T23:33:55.384Z,17.80
2022-10-13T23:36:26.019Z,17.80
2022-10-13T23:39:02.312Z,17.82
2022-10-13T23:41:29.362Z,17.82
2022-10-13T23:43:58.317Z,17.78
2022-10-13T23:46:25.210Z,17.77
2022-10-13T23:48:52.553Z,17.74
2022-10-13T23:51:21.598Z,17.73
2022-10-13T23:53:55.331Z,17.70
2022-10-13T23:56:22.502Z,17.66
2022-10-13T23:58:49.433Z,17.62
